sensor_id;sensor_type;location;lat;lon;timestamp;temperature;humidity
12977;DHT22;6553;48.412;9.514;2023-05-20T00:00:35;19.00;62.10
12977;DHT22;6553;48.412;9.514;2023-05-20T00:03:00;19.00;62.10
12977;DHT22;6553;48.412;9.514;2023-05-20T00:05:26;19.00;62.20
12977;DHT22;6553;48.412;9.514;2023-05-20T00:07:53;19.00;62.20
12977;DHT22;6553;48.412;9.514;2023-05-20T00:10:19;18.90;62.00
12977;DHT22;6553;48.412;9.514;2023-05-20T00:12:44;18.90;62.00
12977;DHT22;6553;48.412;9.514;2023-05-20T00:15:10;19.00;62.10
12977;DHT22;6553;48.412;9.514;2023-05-20T00:17:38;19.00;62.10
12977;DHT22;6553;48.412;9.514;2023-05-20T00:20:05;19.00;62.10
12977;DHT22;6553;48.412;9.514;2023-05-20T00:22:31;19.00;62.20
12977;DHT22;6553;48.412;9.514;2023-05-20T00:24:57;19.00;62.20
12977;DHT22;6553;48.412;9.514;2023-05-20T00:27:23;18.90;62.10
12977;DHT22;6553;48.412;9.514;2023-05-20T00:29:48;18.90;62.10
12977;DHT22;6553;48.412;9.514;2023-05-20T00:32:15;18.90;62.10
12977;DHT22;6553;48.412;9.514;2023-05-20T00:34:42;18.90;62.10
12977;DHT22;6553;48.412;9.514;2023-05-20T00:37:08;18.90;62.10
12977;DHT22;6553;48.412;9.514;2023-05-20T00:39:33;18.90;62.10
12977;DHT22;6553;48.412;9.514;2023-05-20T00:41:59;18.90;62.10
12977;DHT22;6553;48.412;9.514;2023-05-20T00:44:28;18.90;62.10
12977;DHT22;6553;48.412;9.514;2023-05-20T00:46:54;19.00;62.20
12977;DHT22;6553;48.412;9.514;2023-05-20T00:49:20;18.90;62.20
12977;DHT22;6553;48.412;9.514;2023-05-20T00:51:48;19.00;62.20
12977;DHT22;6553;48.412;9.514;2023-05-20T00:54:14;18.90;62.20
12977;DHT22;6553;48.412;9.514;2023-05-20T00:56:40;18.90;62.10
12977;DHT22;6553;48.412;9.514;2023-05-20T00:59:07;18.90;62.20
12977;DHT22;6553;48.412;9.514;2023-05-20T01:01:33;18.90;62.20
12977;DHT22;6553;48.412;9.514;2023-05-20T01:03:59;18.90;62.20
12977;DHT22;6553;48.412;9.514;2023-05-20T01:06:25;18.90;62.20
12977;DHT22;6553;48.412;9.514;2023-05-20T01:08:52;18.90;62.20
12977;DHT22;6553;48.412;9.514;2023-05-20T01:11:30;18.90;62.20
12977;DHT22;6553;48.412;9.514;2023-05-20T01:14:02;18.90;62.20
12977;DHT22;6553;48.412;9.514;2023-05-20T01:16:32;18.90;62.20
12977;DHT22;6553;48.412;9.514;2023-05-20T01:19:01;18.90;62.20
12977;DHT22;6553;48.412;9.514;2023-05-20T01:21:31;18.90;62.30
12977;DHT22;6553;48.412;9.514;2023-05-20T01:23:58;18.90;63.10
12977;DHT22;6553;48.412;9.514;2023-05-20T01:26:26;19.00;62.30
12977;DHT22;6553;48.412;9.514;2023-05-20T01:28:52;18.90;62.30
12977;DHT22;6553;48.412;9.514;2023-05-20T01:31:22;18.90;62.30
12977;DHT22;6553;48.412;9.514;2023-05-20T01:33:55;18.90;62.30
12977;DHT22;6553;48.412;9.514;2023-05-20T01:36:25;18.90;62.30
12977;DHT22;6553;48.412;9.514;2023-05-20T01:38:53;18.90;62.30
12977;DHT22;6553;48.412;9.514;2023-05-20T01:41:23;18.90;62.30
12977;DHT22;6553;48.412;9.514;2023-05-20T01:43:52;18.90;62.30
12977;DHT22;6553;48.412;9.514;2023-05-20T01:46:18;18.90;63.10
12977;DHT22;6553;48.412;9.514;2023-05-20T01:48:44;18.90;62.30
12977;DHT22;6553;48.412;9.514;2023-05-20T01:51:10;18.90;62.40
12977;DHT22;6553;48.412;9.514;2023-05-20T01:53:35;18.90;62.40
12977;DHT22;6553;48.412;9.514;2023-05-20T01:56:01;18.90;63.20
12977;DHT22;6553;48.412;9.514;2023-05-20T01:58:28;18.90;62.40
12977;DHT22;6553;48.412;9.514;2023-05-20T02:00:54;18.90;62.40
12977;DHT22;6553;48.412;9.514;2023-05-20T02:03:20;18.90;62.40
12977;DHT22;6553;48.412;9.514;2023-05-20T02:05:46;18.90;62.40
12977;DHT22;6553;48.412;9.514;2023-05-20T02:08:12;18.90;62.40
12977;DHT22;6553;48.412;9.514;2023-05-20T02:10:38;18.90;62.40
12977;DHT22;6553;48.412;9.514;2023-05-20T02:13:03;18.90;62.40
12977;DHT22;6553;48.412;9.514;2023-05-20T02:15:30;18.90;62.50
12977;DHT22;6553;48.412;9.514;2023-05-20T02:17:56;18.90;62.50
12977;DHT22;6553;48.412;9.514;2023-05-20T02:20:22;18.90;62.50
12977;DHT22;6553;48.412;9.514;2023-05-20T02:22:48;18.90;62.50
12977;DHT22;6553;48.412;9.514;2023-05-20T02:25:14;18.90;62.50
12977;DHT22;6553;48.412;9.514;2023-05-20T02:27:39;18.90;62.50
12977;DHT22;6553;48.412;9.514;2023-05-20T02:30:06;18.90;62.50
12977;DHT22;6553;48.412;9.514;2023-05-20T02:32:32;18.90;62.50
12977;DHT22;6553;48.412;9.514;2023-05-20T02:34:58;18.90;62.50
12977;DHT22;6553;48.412;9.514;2023-05-20T02:37:24;18.90;62.50
12977;DHT22;6553;48.412;9.514;2023-05-20T02:39:50;18.90;62.50
12977;DHT22;6553;48.412;9.514;2023-05-20T02:42:16;18.90;62.50
12977;DHT22;6553;48.412;9.514;2023-05-20T02:44:42;18.90;62.50
12977;DHT22;6553;48.412;9.514;2023-05-20T02:47:08;18.90;62.60
12977;DHT22;6553;48.412;9.514;2023-05-20T02:49:34;18.90;62.50
12977;DHT22;6553;48.412;9.514;2023-05-20T02:52:01;18.90;62.60
12977;DHT22;6553;48.412;9.514;2023-05-20T02:54:27;18.90;62.60
12977;DHT22;6553;48.412;9.514;2023-05-20T02:56:52;18.90;62.60
12977;DHT22;6553;48.412;9.514;2023-05-20T02:59:18;18.90;62.60
12977;DHT22;6553;48.412;9.514;2023-05-20T03:01:44;18.90;62.60
12977;DHT22;6553;48.412;9.514;2023-05-20T03:04:10;18.90;62.60
12977;DHT22;6553;48.412;9.514;2023-05-20T03:06:36;18.90;62.60
12977;DHT22;6553;48.412;9.514;2023-05-20T03:09:02;18.90;62.60
12977;DHT22;6553;48.412;9.514;2023-05-20T03:11:28;18.90;62.70
12977;DHT22;6553;48.412;9.514;2023-05-20T03:13:54;18.90;62.70
12977;DHT22;6553;48.412;9.514;2023-05-20T03:16:20;18.90;62.70
12977;DHT22;6553;48.412;9.514;2023-05-20T03:18:46;18.90;62.70
12977;DHT22;6553;48.412;9.514;2023-05-20T03:21:13;18.90;62.70
12977;DHT22;6553;48.412;9.514;2023-05-20T03:23:38;18.80;62.60
12977;DHT22;6553;48.412;9.514;2023-05-20T03:26:04;18.90;62.70
12977;DHT22;6553;48.412;9.514;2023-05-20T03:28:32;18.90;62.70
12977;DHT22;6553;48.412;9.514;2023-05-20T03:30:58;18.90;62.70
12977;DHT22;6553;48.412;9.514;2023-05-20T03:33:23;18.90;62.70
12977;DHT22;6553;48.412;9.514;2023-05-20T03:35:51;18.90;62.70
12977;DHT22;6553;48.412;9.514;2023-05-20T03:38:16;18.90;62.70
12977;DHT22;6553;48.412;9.514;2023-05-20T03:40:42;18.90;62.70
12977;DHT22;6553;48.412;9.514;2023-05-20T03:43:08;18.90;62.70
12977;DHT22;6553;48.412;9.514;2023-05-20T03:45:34;18.90;62.70
12977;DHT22;6553;48.412;9.514;2023-05-20T03:48:04;18.90;62.70
12977;DHT22;6553;48.412;9.514;2023-05-20T03:50:32;18.90;62.80
12977;DHT22;6553;48.412;9.514;2023-05-20T03:52:59;18.90;62.70
12977;DHT22;6553;48.412;9.514;2023-05-20T03:55:25;18.90;62.70
12977;DHT22;6553;48.412;9.514;2023-05-20T03:57:52;18.90;62.80
12977;DHT22;6553;48.412;9.514;2023-05-20T04:00:18;18.90;62.70
12977;DHT22;6553;48.412;9.514;2023-05-20T04:02:44;18.90;62.80
12977;DHT22;6553;48.412;9.514;2023-05-20T04:05:13;18.90;62.80
12977;DHT22;6553;48.412;9.514;2023-05-20T04:07:39;18.90;62.80
12977;DHT22;6553;48.412;9.514;2023-05-20T04:10:07;18.90;62.80
12977;DHT22;6553;48.412;9.514;2023-05-20T04:12:33;18.90;62.80
12977;DHT22;6553;48.412;9.514;2023-05-20T04:15:01;18.90;62.80
12977;DHT22;6553;48.412;9.514;2023-05-20T04:17:32;18.90;62.90
12977;DHT22;6553;48.412;9.514;2023-05-20T04:19:58;18.90;62.90
12977;DHT22;6553;48.412;9.514;2023-05-20T04:22:25;18.90;62.80
12977;DHT22;6553;48.412;9.514;2023-05-20T04:24:51;18.90;62.80
12977;DHT22;6553;48.412;9.514;2023-05-20T04:27:17;18.90;62.90
12977;DHT22;6553;48.412;9.514;2023-05-20T04:29:43;18.90;62.90
12977;DHT22;6553;48.412;9.514;2023-05-20T04:32:13;18.80;62.80
12977;DHT22;6553;48.412;9.514;2023-05-20T04:34:39;18.90;62.90
12977;DHT22;6553;48.412;9.514;2023-05-20T04:37:05;18.80;62.80
12977;DHT22;6553;48.412;9.514;2023-05-20T04:39:34;18.80;62.80
12977;DHT22;6553;48.412;9.514;2023-05-20T04:42:02;18.90;62.90
12977;DHT22;6553;48.412;9.514;2023-05-20T04:44:28;18.80;62.80
12977;DHT22;6553;48.412;9.514;2023-05-20T04:46:55;18.80;62.80
12977;DHT22;6553;48.412;9.514;2023-05-20T04:49:24;18.80;62.80
12977;DHT22;6553;48.412;9.514;2023-05-20T04:51:51;18.80;63.20
12977;DHT22;6553;48.412;9.514;2023-05-20T04:54:19;18.90;62.90
12977;DHT22;6553;48.412;9.514;2023-05-20T04:56:45;18.80;62.90
12977;DHT22;6553;48.412;9.514;2023-05-20T04:59:11;18.80;62.90
12977;DHT22;6553;48.412;9.514;2023-05-20T05:01:39;18.80;62.90
12977;DHT22;6553;48.412;9.514;2023-05-20T05:04:05;18.80;62.90
12977;DHT22;6553;48.412;9.514;2023-05-20T05:06:31;18.80;62.90
12977;DHT22;6553;48.412;9.514;2023-05-20T05:08:57;18.90;63.00
12977;DHT22;6553;48.412;9.514;2023-05-20T05:11:24;18.80;62.80
12977;DHT22;6553;48.412;9.514;2023-05-20T05:13:51;18.80;62.90
12977;DHT22;6553;48.412;9.514;2023-05-20T05:16:19;18.80;62.90
12977;DHT22;6553;48.412;9.514;2023-05-20T05:18:45;18.80;62.90
12977;DHT22;6553;48.412;9.514;2023-05-20T05:21:10;18.80;62.90
12977;DHT22;6553;48.412;9.514;2023-05-20T05:23:37;18.80;63.00
12977;DHT22;6553;48.412;9.514;2023-05-20T05:26:03;18.80;62.90
12977;DHT22;6553;48.412;9.514;2023-05-20T05:28:28;18.90;63.10
12977;DHT22;6553;48.412;9.514;2023-05-20T05:30:55;18.80;63.00
12977;DHT22;6553;48.412;9.514;2023-05-20T05:33:21;18.80;63.00
12977;DHT22;6553;48.412;9.514;2023-05-20T05:35:47;18.80;63.00
12977;DHT22;6553;48.412;9.514;2023-05-20T05:38:13;18.80;63.00
12977;DHT22;6553;48.412;9.514;2023-05-20T05:40:40;18.80;63.00
12977;DHT22;6553;48.412;9.514;2023-05-20T05:43:06;18.80;63.00
12977;DHT22;6553;48.412;9.514;2023-05-20T05:45:33;18.80;63.00
12977;DHT22;6553;48.412;9.514;2023-05-20T05:47:59;18.80;63.00
12977;DHT22;6553;48.412;9.514;2023-05-20T05:50:25;18.80;63.00
12977;DHT22;6553;48.412;9.514;2023-05-20T05:52:51;18.80;63.00
12977;DHT22;6553;48.412;9.514;2023-05-20T05:55:17;18.80;63.00
12977;DHT22;6553;48.412;9.514;2023-05-20T05:57:43;18.80;63.00
12977;DHT22;6553;48.412;9.514;2023-05-20T06:00:12;18.90;63.10
12977;DHT22;6553;48.412;9.514;2023-05-20T06:02:46;18.90;63.10
12977;DHT22;6553;48.412;9.514;2023-05-20T06:05:21;18.80;63.00
12977;DHT22;6553;48.412;9.514;2023-05-20T06:07:47;18.90;63.00
12977;DHT22;6553;48.412;9.514;2023-05-20T06:10:13;18.80;62.90
12977;DHT22;6553;48.412;9.514;2023-05-20T06:12:39;18.90;63.00
12977;DHT22;6553;48.412;9.514;2023-05-20T06:15:05;18.90;63.00
12977;DHT22;6553;48.412;9.514;2023-05-20T06:17:32;18.90;63.00
12977;DHT22;6553;48.412;9.514;2023-05-20T06:19:58;18.90;63.10
12977;DHT22;6553;48.412;9.514;2023-05-20T06:22:24;18.90;63.00
12977;DHT22;6553;48.412;9.514;2023-05-20T06:24:50;18.90;63.00
12977;DHT22;6553;48.412;9.514;2023-05-20T06:27:16;18.90;63.00
12977;DHT22;6553;48.412;9.514;2023-05-20T06:29:42;18.90;63.00
12977;DHT22;6553;48.412;9.514;2023-05-20T06:32:08;18.90;63.10
12977;DHT22;6553;48.412;9.514;2023-05-20T06:34:34;18.90;63.10
12977;DHT22;6553;48.412;9.514;2023-05-20T06:37:00;18.90;63.10
12977;DHT22;6553;48.412;9.514;2023-05-20T06:39:25;18.90;63.10
12977;DHT22;6553;48.412;9.514;2023-05-20T06:41:51;18.90;63.10
12977;DHT22;6553;48.412;9.514;2023-05-20T06:44:26;18.90;63.10
12977;DHT22;6553;48.412;9.514;2023-05-20T06:47:00;18.90;63.10
12977;DHT22;6553;48.412;9.514;2023-05-20T06:49:26;18.90;63.10
12977;DHT22;6553;48.412;9.514;2023-05-20T06:51:53;18.90;63.00
12977;DHT22;6553;48.412;9.514;2023-05-20T06:54:19;18.90;63.00
12977;DHT22;6553;48.412;9.514;2023-05-20T06:56:47;18.90;63.00
12977;DHT22;6553;48.412;9.514;2023-05-20T06:59:13;18.90;63.00
12977;DHT22;6553;48.412;9.514;2023-05-20T07:01:39;18.90;63.00
12977;DHT22;6553;48.412;9.514;2023-05-20T07:04:06;18.90;63.00
12977;DHT22;6553;48.412;9.514;2023-05-20T07:06:32;18.90;63.00
12977;DHT22;6553;48.412;9.514;2023-05-20T07:08:58;18.90;62.90
12977;DHT22;6553;48.412;9.514;2023-05-20T07:11:25;18.90;63.00
12977;DHT22;6553;48.412;9.514;2023-05-20T07:13:51;18.90;63.00
12977;DHT22;6553;48.412;9.514;2023-05-20T07:16:18;18.90;63.00
12977;DHT22;6553;48.412;9.514;2023-05-20T07:18:48;18.90;63.00
12977;DHT22;6553;48.412;9.514;2023-05-20T07:21:14;19.00;63.10
12977;DHT22;6553;48.412;9.514;2023-05-20T07:23:52;18.90;63.00
12977;DHT22;6553;48.412;9.514;2023-05-20T07:26:18;19.00;63.10
12977;DHT22;6553;48.412;9.514;2023-05-20T07:28:43;18.90;63.00
12977;DHT22;6553;48.412;9.514;2023-05-20T07:31:11;19.00;63.10
12977;DHT22;6553;48.412;9.514;2023-05-20T07:33:41;18.90;63.00
12977;DHT22;6553;48.412;9.514;2023-05-20T07:36:08;19.00;63.10
12977;DHT22;6553;48.412;9.514;2023-05-20T07:38:34;19.00;63.10
12977;DHT22;6553;48.412;9.514;2023-05-20T07:41:03;19.00;63.20
12977;DHT22;6553;48.412;9.514;2023-05-20T07:43:30;19.00;63.10
12977;DHT22;6553;48.412;9.514;2023-05-20T07:45:57;19.00;63.20
12977;DHT22;6553;48.412;9.514;2023-05-20T07:48:23;19.00;63.10
12977;DHT22;6553;48.412;9.514;2023-05-20T07:50:49;19.00;63.10
12977;DHT22;6553;48.412;9.514;2023-05-20T07:53:16;19.00;63.20
12977;DHT22;6553;48.412;9.514;2023-05-20T07:55:42;19.00;63.10
12977;DHT22;6553;48.412;9.514;2023-05-20T07:58:09;19.00;63.20
12977;DHT22;6553;48.412;9.514;2023-05-20T08:00:35;19.00;63.20
12977;DHT22;6553;48.412;9.514;2023-05-20T08:03:03;19.00;63.10
12977;DHT22;6553;48.412;9.514;2023-05-20T08:05:40;19.00;63.10
12977;DHT22;6553;48.412;9.514;2023-05-20T08:08:06;19.00;63.10
12977;DHT22;6553;48.412;9.514;2023-05-20T08:10:45;19.00;63.60
12977;DHT22;6553;48.412;9.514;2023-05-20T08:13:11;19.00;63.10
12977;DHT22;6553;48.412;9.514;2023-05-20T08:15:37;19.00;63.10
12977;DHT22;6553;48.412;9.514;2023-05-20T08:18:03;19.10;63.20
12977;DHT22;6553;48.412;9.514;2023-05-20T08:20:29;19.10;63.10
12977;DHT22;6553;48.412;9.514;2023-05-20T08:22:56;19.10;63.10
12977;DHT22;6553;48.412;9.514;2023-05-20T08:25:22;19.10;63.00
12977;DHT22;6553;48.412;9.514;2023-05-20T08:27:49;19.10;63.10
12977;DHT22;6553;48.412;9.514;2023-05-20T08:30:15;19.10;63.10
12977;DHT22;6553;48.412;9.514;2023-05-20T08:32:41;19.10;63.10
12977;DHT22;6553;48.412;9.514;2023-05-20T08:35:07;19.10;63.10
12977;DHT22;6553;48.412;9.514;2023-05-20T08:37:34;19.10;63.10
12977;DHT22;6553;48.412;9.514;2023-05-20T08:40:00;19.10;63.10
12977;DHT22;6553;48.412;9.514;2023-05-20T08:42:26;19.10;63.20
12977;DHT22;6553;48.412;9.514;2023-05-20T08:44:54;19.10;63.10
12977;DHT22;6553;48.412;9.514;2023-05-20T08:47:23;19.10;63.20
12977;DHT22;6553;48.412;9.514;2023-05-20T08:49:50;19.10;63.30
12977;DHT22;6553;48.412;9.514;2023-05-20T08:52:20;19.10;63.20
12977;DHT22;6553;48.412;9.514;2023-05-20T08:54:48;19.10;63.30
12977;DHT22;6553;48.412;9.514;2023-05-20T08:57:16;19.10;63.30
12977;DHT22;6553;48.412;9.514;2023-05-20T08:59:43;19.20;63.40
12977;DHT22;6553;48.412;9.514;2023-05-20T09:02:11;19.10;63.30
12977;DHT22;6553;48.412;9.514;2023-05-20T09:04:38;19.20;63.40
12977;DHT22;6553;48.412;9.514;2023-05-20T09:07:04;19.20;63.40
12977;DHT22;6553;48.412;9.514;2023-05-20T09:09:32;19.20;63.30
12977;DHT22;6553;48.412;9.514;2023-05-20T09:12:00;19.20;63.30
12977;DHT22;6553;48.412;9.514;2023-05-20T09:14:29;19.30;63.40
12977;DHT22;6553;48.412;9.514;2023-05-20T09:16:55;19.30;63.40
12977;DHT22;6553;48.412;9.514;2023-05-20T09:19:22;19.30;63.40
12977;DHT22;6553;48.412;9.514;2023-05-20T09:21:51;19.30;63.50
12977;DHT22;6553;48.412;9.514;2023-05-20T09:24:25;19.30;63.80
12977;DHT22;6553;48.412;9.514;2023-05-20T09:26:51;19.30;63.90
12977;DHT22;6553;48.412;9.514;2023-05-20T09:29:17;19.30;63.90
12977;DHT22;6553;48.412;9.514;2023-05-20T09:31:46;19.30;64.00
12977;DHT22;6553;48.412;9.514;2023-05-20T09:34:12;19.30;64.00
12977;DHT22;6553;48.412;9.514;2023-05-20T09:36:39;19.30;64.00
12977;DHT22;6553;48.412;9.514;2023-05-20T09:39:08;19.30;64.00
12977;DHT22;6553;48.412;9.514;2023-05-20T09:41:51;19.30;64.10
12977;DHT22;6553;48.412;9.514;2023-05-20T09:44:21;19.30;64.10
12977;DHT22;6553;48.412;9.514;2023-05-20T09:46:48;19.20;64.00
12977;DHT22;6553;48.412;9.514;2023-05-20T09:49:15;19.30;64.10
12977;DHT22;6553;48.412;9.514;2023-05-20T09:51:42;19.30;64.10
12977;DHT22;6553;48.412;9.514;2023-05-20T09:54:11;19.30;64.10
12977;DHT22;6553;48.412;9.514;2023-05-20T09:56:40;19.30;64.20
12977;DHT22;6553;48.412;9.514;2023-05-20T09:59:07;19.30;64.10
12977;DHT22;6553;48.412;9.514;2023-05-20T10:01:34;19.30;64.20
12977;DHT22;6553;48.412;9.514;2023-05-20T10:03:59;19.30;64.10
12977;DHT22;6553;48.412;9.514;2023-05-20T10:06:49;19.30;64.10
12977;DHT22;6553;48.412;9.514;2023-05-20T10:12:15;19.30;64.10
12977;DHT22;6553;48.412;9.514;2023-05-20T10:21:15;19.30;64.50
12977;DHT22;6553;48.412;9.514;2023-05-20T10:23:42;19.30;64.60
12977;DHT22;6553;48.412;9.514;2023-05-20T10:26:08;19.30;64.90
12977;DHT22;6553;48.412;9.514;2023-05-20T10:28:35;19.30;65.00
12977;DHT22;6553;48.412;9.514;2023-05-20T10:31:17;19.30;65.00
12977;DHT22;6553;48.412;9.514;2023-05-20T10:33:46;19.30;65.00
12977;DHT22;6553;48.412;9.514;2023-05-20T10:36:27;19.30;65.10
12977;DHT22;6553;48.412;9.514;2023-05-20T10:38:57;19.30;65.10
12977;DHT22;6553;48.412;9.514;2023-05-20T10:41:27;19.30;65.10
12977;DHT22;6553;48.412;9.514;2023-05-20T10:44:04;19.30;65.30
12977;DHT22;6553;48.412;9.514;2023-05-20T10:46:32;19.30;65.20
12977;DHT22;6553;48.412;9.514;2023-05-20T10:49:00;19.30;65.30
12977;DHT22;6553;48.412;9.514;2023-05-20T10:51:28;19.30;66.00
12977;DHT22;6553;48.412;9.514;2023-05-20T10:53:56;19.30;65.00
12977;DHT22;6553;48.412;9.514;2023-05-20T10:56:24;19.30;65.10
12977;DHT22;6553;48.412;9.514;2023-05-20T10:58:52;19.30;65.20
12977;DHT22;6553;48.412;9.514;2023-05-20T11:01:24;19.30;65.40
12977;DHT22;6553;48.412;9.514;2023-05-20T11:03:53;19.30;65.10
12977;DHT22;6553;48.412;9.514;2023-05-20T11:06:25;19.30;65.00
12977;DHT22;6553;48.412;9.514;2023-05-20T11:08:53;19.30;65.00
12977;DHT22;6553;48.412;9.514;2023-05-20T11:11:19;19.30;65.00
12977;DHT22;6553;48.412;9.514;2023-05-20T11:13:50;19.30;64.90
12977;DHT22;6553;48.412;9.514;2023-05-20T11:16:16;19.30;65.00
12977;DHT22;6553;48.412;9.514;2023-05-20T11:18:42;19.30;65.10
12977;DHT22;6553;48.412;9.514;2023-05-20T11:21:07;19.30;65.30
12977;DHT22;6553;48.412;9.514;2023-05-20T11:23:33;19.30;65.20
12977;DHT22;6553;48.412;9.514;2023-05-20T11:25:59;19.30;65.10
12977;DHT22;6553;48.412;9.514;2023-05-20T11:28:25;19.30;65.30
12977;DHT22;6553;48.412;9.514;2023-05-20T11:30:52;19.30;65.00
12977;DHT22;6553;48.412;9.514;2023-05-20T11:33:18;19.30;65.00
12977;DHT22;6553;48.412;9.514;2023-05-20T11:35:46;19.30;65.00
12977;DHT22;6553;48.412;9.514;2023-05-20T11:38:14;19.30;65.00
12977;DHT22;6553;48.412;9.514;2023-05-20T11:40:45;19.30;65.10
12977;DHT22;6553;48.412;9.514;2023-05-20T11:43:19;19.40;65.10
12977;DHT22;6553;48.412;9.514;2023-05-20T11:45:51;19.40;65.00
12977;DHT22;6553;48.412;9.514;2023-05-20T11:48:20;19.40;64.80
12977;DHT22;6553;48.412;9.514;2023-05-20T11:50:47;19.40;65.00
12977;DHT22;6553;48.412;9.514;2023-05-20T11:53:20;19.40;65.10
12977;DHT22;6553;48.412;9.514;2023-05-20T11:55:56;19.40;65.10
12977;DHT22;6553;48.412;9.514;2023-05-20T11:58:26;19.40;64.80
12977;DHT22;6553;48.412;9.514;2023-05-20T12:00:55;19.40;64.80
12977;DHT22;6553;48.412;9.514;2023-05-20T12:03:22;19.40;64.90
12977;DHT22;6553;48.412;9.514;2023-05-20T12:05:48;19.40;65.00
12977;DHT22;6553;48.412;9.514;2023-05-20T12:08:15;19.40;65.00
12977;DHT22;6553;48.412;9.514;2023-05-20T12:10:41;19.40;65.10
12977;DHT22;6553;48.412;9.514;2023-05-20T12:13:07;19.40;65.20
12977;DHT22;6553;48.412;9.514;2023-05-20T12:15:36;19.40;65.10
12977;DHT22;6553;48.412;9.514;2023-05-20T12:18:03;19.40;65.00
12977;DHT22;6553;48.412;9.514;2023-05-20T12:20:29;19.40;65.00
12977;DHT22;6553;48.412;9.514;2023-05-20T12:22:56;19.40;64.90
12977;DHT22;6553;48.412;9.514;2023-05-20T12:25:23;19.40;65.10
12977;DHT22;6553;48.412;9.514;2023-05-20T12:27:49;19.40;65.10
12977;DHT22;6553;48.412;9.514;2023-05-20T12:30:19;19.40;65.00
12977;DHT22;6553;48.412;9.514;2023-05-20T12:32:47;19.40;65.00
12977;DHT22;6553;48.412;9.514;2023-05-20T12:35:15;19.40;65.10
12977;DHT22;6553;48.412;9.514;2023-05-20T12:37:42;19.40;65.10
12977;DHT22;6553;48.412;9.514;2023-05-20T12:40:10;19.40;65.10
12977;DHT22;6553;48.412;9.514;2023-05-20T12:42:40;19.40;65.00
12977;DHT22;6553;48.412;9.514;2023-05-20T12:45:07;19.40;65.40
12977;DHT22;6553;48.412;9.514;2023-05-20T12:47:34;19.40;65.30
12977;DHT22;6553;48.412;9.514;2023-05-20T12:50:01;19.40;65.10
12977;DHT22;6553;48.412;9.514;2023-05-20T12:52:27;19.40;65.40
12977;DHT22;6553;48.412;9.514;2023-05-20T12:54:54;19.40;65.50
12977;DHT22;6553;48.412;9.514;2023-05-20T12:57:22;19.40;65.30
12977;DHT22;6553;48.412;9.514;2023-05-20T12:59:49;19.40;65.20
12977;DHT22;6553;48.412;9.514;2023-05-20T13:02:15;19.40;65.20
12977;DHT22;6553;48.412;9.514;2023-05-20T13:04:41;19.40;65.10
12977;DHT22;6553;48.412;9.514;2023-05-20T13:07:07;19.40;65.30
12977;DHT22;6553;48.412;9.514;2023-05-20T13:09:32;19.40;65.20
12977;DHT22;6553;48.412;9.514;2023-05-20T13:11:59;19.40;65.10
12977;DHT22;6553;48.412;9.514;2023-05-20T13:14:26;19.40;65.10
12977;DHT22;6553;48.412;9.514;2023-05-20T13:16:52;19.40;65.20
12977;DHT22;6553;48.412;9.514;2023-05-20T13:19:23;19.40;65.10
12977;DHT22;6553;48.412;9.514;2023-05-20T13:21:51;19.40;65.10
12977;DHT22;6553;48.412;9.514;2023-05-20T13:24:19;19.40;65.10
12977;DHT22;6553;48.412;9.514;2023-05-20T13:26:45;19.50;65.10
12977;DHT22;6553;48.412;9.514;2023-05-20T13:29:12;19.50;65.00
12977;DHT22;6553;48.412;9.514;2023-05-20T13:31:38;19.50;65.20
12977;DHT22;6553;48.412;9.514;2023-05-20T13:34:04;19.50;65.40
12977;DHT22;6553;48.412;9.514;2023-05-20T13:36:31;19.40;65.10
12977;DHT22;6553;48.412;9.514;2023-05-20T13:38:57;19.50;65.20
12977;DHT22;6553;48.412;9.514;2023-05-20T13:41:23;19.40;65.10
12977;DHT22;6553;48.412;9.514;2023-05-20T13:43:52;19.40;65.20
12977;DHT22;6553;48.412;9.514;2023-05-20T13:46:18;19.50;65.80
12977;DHT22;6553;48.412;9.514;2023-05-20T13:48:44;19.40;65.70
12977;DHT22;6553;48.412;9.514;2023-05-20T13:51:10;19.50;65.70
12977;DHT22;6553;48.412;9.514;2023-05-20T13:53:35;19.40;65.40
12977;DHT22;6553;48.412;9.514;2023-05-20T13:56:01;19.50;65.80
12977;DHT22;6553;48.412;9.514;2023-05-20T13:58:28;19.40;65.80
12977;DHT22;6553;48.412;9.514;2023-05-20T14:00:53;19.50;65.70
12977;DHT22;6553;48.412;9.514;2023-05-20T14:03:19;19.50;65.70
12977;DHT22;6553;48.412;9.514;2023-05-20T14:05:45;19.40;65.50
12977;DHT22;6553;48.412;9.514;2023-05-20T14:08:11;19.40;65.50
12977;DHT22;6553;48.412;9.514;2023-05-20T14:10:37;19.40;65.60
12977;DHT22;6553;48.412;9.514;2023-05-20T14:13:03;19.50;65.50
12977;DHT22;6553;48.412;9.514;2023-05-20T14:15:29;19.50;65.50
12977;DHT22;6553;48.412;9.514;2023-05-20T14:17:58;19.40;65.60
12977;DHT22;6553;48.412;9.514;2023-05-20T14:20:24;19.40;65.60
12977;DHT22;6553;48.412;9.514;2023-05-20T14:22:53;19.40;65.60
12977;DHT22;6553;48.412;9.514;2023-05-20T14:25:19;19.50;65.50
12977;DHT22;6553;48.412;9.514;2023-05-20T14:27:45;19.40;65.80
12977;DHT22;6553;48.412;9.514;2023-05-20T14:30:11;19.40;65.60
12977;DHT22;6553;48.412;9.514;2023-05-20T14:32:37;19.40;65.60
12977;DHT22;6553;48.412;9.514;2023-05-20T14:35:03;19.40;65.80
12977;DHT22;6553;48.412;9.514;2023-05-20T14:37:30;19.50;65.70
12977;DHT22;6553;48.412;9.514;2023-05-20T14:39:56;19.40;65.90
12977;DHT22;6553;48.412;9.514;2023-05-20T14:42:22;19.50;65.70
12977;DHT22;6553;48.412;9.514;2023-05-20T14:44:47;19.40;65.70
12977;DHT22;6553;48.412;9.514;2023-05-20T14:47:13;19.40;65.70
12977;DHT22;6553;48.412;9.514;2023-05-20T14:49:44;19.40;65.80
12977;DHT22;6553;48.412;9.514;2023-05-20T14:52:11;19.50;65.60
12977;DHT22;6553;48.412;9.514;2023-05-20T14:54:37;19.40;65.70
12977;DHT22;6553;48.412;9.514;2023-05-20T14:57:03;19.40;65.70
12977;DHT22;6553;48.412;9.514;2023-05-20T14:59:31;19.40;65.70
12977;DHT22;6553;48.412;9.514;2023-05-20T15:01:57;19.40;65.80
12977;DHT22;6553;48.412;9.514;2023-05-20T15:04:22;19.40;65.80
12977;DHT22;6553;48.412;9.514;2023-05-20T15:06:48;19.50;65.80
12977;DHT22;6553;48.412;9.514;2023-05-20T15:09:14;19.50;65.80
12977;DHT22;6553;48.412;9.514;2023-05-20T15:11:40;19.50;65.80
12977;DHT22;6553;48.412;9.514;2023-05-20T15:14:05;19.50;66.20
12977;DHT22;6553;48.412;9.514;2023-05-20T15:16:31;19.50;65.90
12977;DHT22;6553;48.412;9.514;2023-05-20T15:18:57;19.50;65.80
12977;DHT22;6553;48.412;9.514;2023-05-20T15:21:23;19.50;65.90
12977;DHT22;6553;48.412;9.514;2023-05-20T15:23:49;19.50;65.90
12977;DHT22;6553;48.412;9.514;2023-05-20T15:26:14;19.50;66.00
12977;DHT22;6553;48.412;9.514;2023-05-20T15:28:40;19.40;66.00
12977;DHT22;6553;48.412;9.514;2023-05-20T15:31:06;19.40;66.00
12977;DHT22;6553;48.412;9.514;2023-05-20T15:33:32;19.50;66.30
12977;DHT22;6553;48.412;9.514;2023-05-20T15:35:58;19.50;66.30
12977;DHT22;6553;48.412;9.514;2023-05-20T15:38:24;19.50;66.00
12977;DHT22;6553;48.412;9.514;2023-05-20T15:40:50;19.50;66.10
12977;DHT22;6553;48.412;9.514;2023-05-20T15:43:16;19.50;65.70
12977;DHT22;6553;48.412;9.514;2023-05-20T15:45:43;19.50;66.10
12977;DHT22;6553;48.412;9.514;2023-05-20T15:48:09;19.50;66.00
12977;DHT22;6553;48.412;9.514;2023-05-20T15:50:36;19.50;65.70
12977;DHT22;6553;48.412;9.514;2023-05-20T15:53:04;19.50;66.10